Joao Correia, Brazil
Current Conditions -  °F | °C
As of 9:00 AM on Friday 24 Oct 2014 (Local Time) from SBQV Reporting Station
Broken Clouds Broken Clouds  
Wind Chill: 66°   Ceiling: 900
Heat Index: 66°   Visibility: 6mi
Dew Point: 66°   Wind: 12mph
Humidity: 100%   Direction: 120°ESE
Pressure: 30.18"   Gusts: NA
Location:  13.27°S, 41.61°W
Report Text: SBQV 241200Z 12010KT 9999 BKN009 19/19 Q1022
Loading
Personal Weather Stations






























Interactive Weather Map
Tropical Storm Tracking
New forecast layout! Learn more

10-Day Weather Forecast

Advertisements
Track Severe Weather on mobile